sensor_id;sensor_type;location;lat;lon;timestamp;pressure;altitude;pressure_sealevel;temperature;humidity
11830;BME280;5972;42.134;24.718;2024-03-02T00:00:49;99407.13;;;8.83;100.00
11830;BME280;5972;42.134;24.718;2024-03-02T00:03:18;99413.78;;;8.86;100.00
11830;BME280;5972;42.134;24.718;2024-03-02T00:05:49;99406.03;;;8.96;100.00
11830;BME280;5972;42.134;24.718;2024-03-02T00:08:22;99407.59;;;8.85;100.00
11830;BME280;5972;42.134;24.718;2024-03-02T00:10:52;99386.63;;;8.70;100.00
11830;BME280;5972;42.134;24.718;2024-03-02T00:13:23;99399.59;;;8.89;100.00
11830;BME280;5972;42.134;24.718;2024-03-02T00:15:52;99408.72;;;8.84;100.00
11830;BME280;5972;42.134;24.718;2024-03-02T00:18:25;99399.34;;;8.82;100.00
11830;BME280;5972;42.134;24.718;2024-03-02T00:20:53;99393.84;;;8.78;100.00
11830;BME280;5972;42.134;24.718;2024-03-02T00:23:21;99365.44;;;8.48;100.00
11830;BME280;5972;42.134;24.718;2024-03-02T00:25:49;99402.03;;;8.69;100.00
11830;BME280;5972;42.134;24.718;2024-03-02T00:28:20;99359.16;;;8.44;100.00
11830;BME280;5972;42.134;24.718;2024-03-02T00:31:05;99401.16;;;8.77;100.00
11830;BME280;5972;42.134;24.718;2024-03-02T00:33:35;99399.94;;;8.87;100.00
11830;BME280;5972;42.134;24.718;2024-03-02T00:36:04;99398.78;;;8.76;100.00
11830;BME280;5972;42.134;24.718;2024-03-02T00:38:32;99398.69;;;8.85;100.00
11830;BME280;5972;42.134;24.718;2024-03-02T00:41:04;99378.91;;;8.93;100.00
11830;BME280;5972;42.134;24.718;2024-03-02T00:46:52;99381.38;;;8.73;100.00
11830;BME280;5972;42.134;24.718;2024-03-02T00:49:22;99387.34;;;8.79;100.00
11830;BME280;5972;42.134;24.718;2024-03-02T00:51:50;99332.13;;;8.64;100.00
11830;BME280;5972;42.134;24.718;2024-03-02T00:54:20;99371.91;;;8.67;100.00
11830;BME280;5972;42.134;24.718;2024-03-02T00:56:49;99370.47;;;8.82;100.00
11830;BME280;5972;42.134;24.718;2024-03-02T00:59:16;99367.88;;;8.73;100.00
11830;BME280;5972;42.134;24.718;2024-03-02T01:01:43;99369.00;;;8.72;100.00
11830;BME280;5972;42.134;24.718;2024-03-02T01:04:10;99357.75;;;8.70;100.00
11830;BME280;5972;42.134;24.718;2024-03-02T01:06:38;99357.66;;;8.67;100.00
11830;BME280;5972;42.134;24.718;2024-03-02T01:09:06;99351.56;;;8.70;100.00
11830;BME280;5972;42.134;24.718;2024-03-02T01:11:33;99352.34;;;8.70;100.00
11830;BME280;5972;42.134;24.718;2024-03-02T01:14:00;99348.84;;;8.46;100.00
11830;BME280;5972;42.134;24.718;2024-03-02T01:16:27;99348.50;;;8.59;100.00
11830;BME280;5972;42.134;24.718;2024-03-02T01:18:54;99327.41;;;8.28;100.00
11830;BME280;5972;42.134;24.718;2024-03-02T01:21:24;99350.06;;;8.48;100.00
11830;BME280;5972;42.134;24.718;2024-03-02T01:23:52;99343.81;;;8.56;100.00
11830;BME280;5972;42.134;24.718;2024-03-02T01:26:19;99317.50;;;8.41;100.00
11830;BME280;5972;42.134;24.718;2024-03-02T01:28:46;99339.56;;;8.67;100.00
11830;BME280;5972;42.134;24.718;2024-03-02T01:31:13;99342.69;;;8.57;100.00
11830;BME280;5972;42.134;24.718;2024-03-02T01:33:40;99349.66;;;8.70;100.00
11830;BME280;5972;42.134;24.718;2024-03-02T01:36:07;99326.72;;;8.52;100.00
11830;BME280;5972;42.134;24.718;2024-03-02T01:38:34;99352.13;;;8.51;100.00
11830;BME280;5972;42.134;24.718;2024-03-02T01:41:03;99349.28;;;8.48;100.00
11830;BME280;5972;42.134;24.718;2024-03-02T01:43:30;99341.50;;;8.34;100.00
11830;BME280;5972;42.134;24.718;2024-03-02T01:45:57;99342.09;;;8.40;100.00
11830;BME280;5972;42.134;24.718;2024-03-02T01:48:24;99347.94;;;8.54;100.00
11830;BME280;5972;42.134;24.718;2024-03-02T01:50:51;99353.13;;;8.47;100.00
11830;BME280;5972;42.134;24.718;2024-03-02T01:53:18;99354.34;;;8.49;100.00
11830;BME280;5972;42.134;24.718;2024-03-02T01:55:45;99276.03;;;8.01;100.00
11830;BME280;5972;42.134;24.718;2024-03-02T01:58:14;99295.50;;;8.18;100.00
11830;BME280;5972;42.134;24.718;2024-03-02T02:00:41;99343.13;;;8.26;100.00
11830;BME280;5972;42.134;24.718;2024-03-02T02:03:08;99348.91;;;8.37;100.00
11830;BME280;5972;42.134;24.718;2024-03-02T02:05:35;99346.81;;;8.55;100.00
11830;BME280;5972;42.134;24.718;2024-03-02T02:08:02;99301.91;;;8.26;100.00
11830;BME280;5972;42.134;24.718;2024-03-02T02:10:29;99339.19;;;8.57;100.00
11830;BME280;5972;42.134;24.718;2024-03-02T02:12:56;99337.16;;;8.54;100.00
11830;BME280;5972;42.134;24.718;2024-03-02T02:15:26;99344.16;;;8.67;100.00
11830;BME280;5972;42.134;24.718;2024-03-02T02:17:53;99332.69;;;8.58;100.00
11830;BME280;5972;42.134;24.718;2024-03-02T02:20:20;99334.72;;;8.61;100.00
11830;BME280;5972;42.134;24.718;2024-03-02T02:22:58;99328.16;;;8.50;100.00
11830;BME280;5972;42.134;24.718;2024-03-02T02:25:25;99342.41;;;8.38;100.00
11830;BME280;5972;42.134;24.718;2024-03-02T02:27:53;99348.38;;;8.44;100.00
11830;BME280;5972;42.134;24.718;2024-03-02T02:30:21;99329.25;;;8.37;100.00
11830;BME280;5972;42.134;24.718;2024-03-02T02:32:48;99330.63;;;8.43;100.00
11830;BME280;5972;42.134;24.718;2024-03-02T02:35:15;99337.50;;;8.52;100.00
11830;BME280;5972;42.134;24.718;2024-03-02T02:37:43;99342.28;;;8.34;100.00
11830;BME280;5972;42.134;24.718;2024-03-02T02:40:12;99329.31;;;8.28;100.00
11830;BME280;5972;42.134;24.718;2024-03-02T02:42:39;99335.22;;;8.30;100.00
11830;BME280;5972;42.134;24.718;2024-03-02T02:45:06;99333.59;;;8.29;100.00
11830;BME280;5972;42.134;24.718;2024-03-02T02:47:33;99338.69;;;8.43;100.00
11830;BME280;5972;42.134;24.718;2024-03-02T02:50:01;99328.38;;;8.45;100.00
11830;BME280;5972;42.134;24.718;2024-03-02T02:52:31;99300.59;;;8.32;100.00
11830;BME280;5972;42.134;24.718;2024-03-02T02:55:02;99333.75;;;8.32;100.00
11830;BME280;5972;42.134;24.718;2024-03-02T02:57:31;99340.09;;;8.28;100.00
11830;BME280;5972;42.134;24.718;2024-03-02T03:00:02;99314.47;;;8.22;100.00
11830;BME280;5972;42.134;24.718;2024-03-02T03:02:38;99321.72;;;8.30;100.00
11830;BME280;5972;42.134;24.718;2024-03-02T03:05:07;99330.97;;;8.41;100.00
11830;BME280;5972;42.134;24.718;2024-03-02T03:07:35;99334.81;;;8.52;100.00
11830;BME280;5972;42.134;24.718;2024-03-02T03:10:03;99319.34;;;8.28;100.00
11830;BME280;5972;42.134;24.718;2024-03-02T03:12:32;99331.63;;;8.38;100.00
11830;BME280;5972;42.134;24.718;2024-03-02T03:14:59;99325.72;;;8.24;100.00
11830;BME280;5972;42.134;24.718;2024-03-02T03:17:27;99345.09;;;8.38;100.00
11830;BME280;5972;42.134;24.718;2024-03-02T03:19:54;99342.28;;;8.34;100.00
11830;BME280;5972;42.134;24.718;2024-03-02T03:22:21;99343.88;;;8.36;100.00
11830;BME280;5972;42.134;24.718;2024-03-02T03:24:48;99338.84;;;8.25;100.00
11830;BME280;5972;42.134;24.718;2024-03-02T03:27:15;99326.06;;;8.22;100.00
11830;BME280;5972;42.134;24.718;2024-03-02T03:29:44;99339.16;;;8.45;100.00
11830;BME280;5972;42.134;24.718;2024-03-02T03:32:10;99329.31;;;8.28;100.00
11830;BME280;5972;42.134;24.718;2024-03-02T03:34:37;99337.16;;;8.21;100.00
11830;BME280;5972;42.134;24.718;2024-03-02T03:37:04;99332.72;;;8.04;100.00
11830;BME280;5972;42.134;24.718;2024-03-02T03:39:32;99340.28;;;8.11;100.00
11830;BME280;5972;42.134;24.718;2024-03-02T03:42:01;99340.97;;;8.20;100.00
11830;BME280;5972;42.134;24.718;2024-03-02T03:44:28;99347.50;;;8.19;100.00
11830;BME280;5972;42.134;24.718;2024-03-02T03:46:56;99341.94;;;8.36;100.00
11830;BME280;5972;42.134;24.718;2024-03-02T03:49:23;99329.19;;;8.45;100.00
11830;BME280;5972;42.134;24.718;2024-03-02T03:51:50;99329.22;;;8.57;100.00
11830;BME280;5972;42.134;24.718;2024-03-02T03:54:17;99329.78;;;8.63;100.00
11830;BME280;5972;42.134;24.718;2024-03-02T03:56:44;99327.38;;;8.49;100.00
11830;BME280;5972;42.134;24.718;2024-03-02T03:59:11;99330.97;;;8.53;100.00
11830;BME280;5972;42.134;24.718;2024-03-02T04:01:38;99330.06;;;8.49;100.00
11830;BME280;5972;42.134;24.718;2024-03-02T04:04:06;99313.31;;;8.44;100.00
11830;BME280;5972;42.134;24.718;2024-03-02T04:06:34;99326.16;;;8.47;100.00
11830;BME280;5972;42.134;24.718;2024-03-02T04:09:01;99336.94;;;8.59;100.00
11830;BME280;5972;42.134;24.718;2024-03-02T04:11:29;99339.63;;;8.47;100.00
11830;BME280;5972;42.134;24.718;2024-03-02T04:13:56;99344.44;;;8.41;100.00
11830;BME280;5972;42.134;24.718;2024-03-02T04:16:23;99333.84;;;8.36;100.00
11830;BME280;5972;42.134;24.718;2024-03-02T04:18:50;99345.38;;;8.24;100.00
11830;BME280;5972;42.134;24.718;2024-03-02T04:21:19;99341.44;;;8.22;100.00
11830;BME280;5972;42.134;24.718;2024-03-02T04:23:46;99342.81;;;8.28;100.00
11830;BME280;5972;42.134;24.718;2024-03-02T04:26:13;99352.22;;;8.22;100.00
11830;BME280;5972;42.134;24.718;2024-03-02T04:28:40;99353.25;;;8.29;100.00
11830;BME280;5972;42.134;24.718;2024-03-02T04:31:07;99339.06;;;8.20;100.00
11830;BME280;5972;42.134;24.718;2024-03-02T04:33:34;99354.91;;;8.22;100.00
11830;BME280;5972;42.134;24.718;2024-03-02T04:36:01;99348.13;;;8.37;100.00
11830;BME280;5972;42.134;24.718;2024-03-02T04:38:29;99335.25;;;8.21;100.00
11830;BME280;5972;42.134;24.718;2024-03-02T04:40:57;99339.53;;;8.22;100.00
11830;BME280;5972;42.134;24.718;2024-03-02T04:43:24;99354.22;;;8.25;100.00
11830;BME280;5972;42.134;24.718;2024-03-02T04:45:51;99343.59;;;8.28;100.00
11830;BME280;5972;42.134;24.718;2024-03-02T04:48:18;99349.31;;;8.27;100.00
11830;BME280;5972;42.134;24.718;2024-03-02T04:50:47;99343.31;;;8.42;100.00
11830;BME280;5972;42.134;24.718;2024-03-02T04:53:14;99342.19;;;8.43;100.00
11830;BME280;5972;42.134;24.718;2024-03-02T04:55:42;99338.28;;;8.41;100.00
11830;BME280;5972;42.134;24.718;2024-03-02T04:58:35;99347.25;;;8.45;100.00
11830;BME280;5972;42.134;24.718;2024-03-02T05:01:02;99338.34;;;8.32;100.00
11830;BME280;5972;42.134;24.718;2024-03-02T05:03:29;99338.59;;;8.39;100.00
11830;BME280;5972;42.134;24.718;2024-03-02T05:05:56;99350.03;;;8.36;100.00
11830;BME280;5972;42.134;24.718;2024-03-02T05:08:23;99347.91;;;8.42;100.00
11830;BME280;5972;42.134;24.718;2024-03-02T05:10:51;99348.38;;;8.44;100.00
11830;BME280;5972;42.134;24.718;2024-03-02T05:13:18;99330.97;;;8.20;100.00
11830;BME280;5972;42.134;24.718;2024-03-02T05:15:46;99353.41;;;8.33;100.00
11830;BME280;5972;42.134;24.718;2024-03-02T05:18:13;99358.31;;;8.31;100.00
11830;BME280;5972;42.134;24.718;2024-03-02T05:20:40;99371.66;;;8.27;100.00
11830;BME280;5972;42.134;24.718;2024-03-02T05:23:07;99362.75;;;8.36;100.00
11830;BME280;5972;42.134;24.718;2024-03-02T05:25:34;99365.63;;;8.30;100.00
11830;BME280;5972;42.134;24.718;2024-03-02T05:28:03;99374.66;;;8.34;100.00
11830;BME280;5972;42.134;24.718;2024-03-02T05:30:30;99370.41;;;8.25;100.00
11830;BME280;5972;42.134;24.718;2024-03-02T05:32:57;99379.75;;;8.27;100.00
11830;BME280;5972;42.134;24.718;2024-03-02T05:35:24;99349.06;;;8.20;100.00
11830;BME280;5972;42.134;24.718;2024-03-02T05:37:51;99385.13;;;8.27;100.00
11830;BME280;5972;42.134;24.718;2024-03-02T05:40:18;99385.13;;;8.27;100.00
11830;BME280;5972;42.134;24.718;2024-03-02T05:42:45;99392.41;;;8.36;100.00
11830;BME280;5972;42.134;24.718;2024-03-02T05:45:14;99398.13;;;8.34;100.00
11830;BME280;5972;42.134;24.718;2024-03-02T05:47:42;99376.00;;;8.20;100.00
11830;BME280;5972;42.134;24.718;2024-03-02T05:50:09;99371.88;;;8.22;100.00
11830;BME280;5972;42.134;24.718;2024-03-02T05:52:36;99386.81;;;8.41;100.00
11830;BME280;5972;42.134;24.718;2024-03-02T05:55:03;99385.28;;;8.31;100.00
11830;BME280;5972;42.134;24.718;2024-03-02T05:57:31;99372.13;;;8.29;100.00
11830;BME280;5972;42.134;24.718;2024-03-02T06:00:16;99389.94;;;8.22;100.00
11830;BME280;5972;42.134;24.718;2024-03-02T06:02:43;99386.72;;;8.28;100.00
11830;BME280;5972;42.134;24.718;2024-03-02T06:05:10;99382.59;;;8.31;100.00
11830;BME280;5972;42.134;24.718;2024-03-02T06:07:37;99383.44;;;8.44;100.00
11830;BME280;5972;42.134;24.718;2024-03-02T06:10:05;99380.84;;;8.47;100.00
11830;BME280;5972;42.134;24.718;2024-03-02T06:12:34;99382.78;;;8.59;100.00
11830;BME280;5972;42.134;24.718;2024-03-02T06:15:01;99376.75;;;8.62;100.00
11830;BME280;5972;42.134;24.718;2024-03-02T06:17:30;99375.63;;;8.63;100.00
11830;BME280;5972;42.134;24.718;2024-03-02T06:19:57;99357.63;;;8.55;100.00
11830;BME280;5972;42.134;24.718;2024-03-02T06:22:24;99377.19;;;8.76;100.00
11830;BME280;5972;42.134;24.718;2024-03-02T06:24:51;99390.00;;;8.67;100.00
11830;BME280;5972;42.134;24.718;2024-03-02T06:27:18;99390.66;;;8.52;100.00
11830;BME280;5972;42.134;24.718;2024-03-02T06:29:45;99403.78;;;8.53;100.00
11830;BME280;5972;42.134;24.718;2024-03-02T06:32:14;99398.75;;;8.64;100.00
11830;BME280;5972;42.134;24.718;2024-03-02T06:34:42;99395.47;;;8.58;100.00
11830;BME280;5972;42.134;24.718;2024-03-02T06:37:09;99401.13;;;8.65;100.00
11830;BME280;5972;42.134;24.718;2024-03-02T06:39:36;99398.78;;;8.76;100.00
11830;BME280;5972;42.134;24.718;2024-03-02T06:42:03;99397.16;;;8.51;100.00
11830;BME280;5972;42.134;24.718;2024-03-02T06:44:30;99383.34;;;8.64;100.00
11830;BME280;5972;42.134;24.718;2024-03-02T06:46:57;99398.94;;;8.80;100.00
11830;BME280;5972;42.134;24.718;2024-03-02T06:49:24;99406.00;;;8.84;100.00
11830;BME280;5972;42.134;24.718;2024-03-02T06:51:53;99402.84;;;8.82;100.00
11830;BME280;5972;42.134;24.718;2024-03-02T06:54:20;99408.16;;;8.91;100.00
11830;BME280;5972;42.134;24.718;2024-03-02T06:56:47;99407.22;;;8.74;100.00
11830;BME280;5972;42.134;24.718;2024-03-02T06:59:13;99423.78;;;8.85;100.00
11830;BME280;5972;42.134;24.718;2024-03-02T07:01:40;99415.13;;;8.80;100.00
11830;BME280;5972;42.134;24.718;2024-03-02T07:04:08;99411.06;;;8.73;100.00
11830;BME280;5972;42.134;24.718;2024-03-02T07:06:36;99416.34;;;8.82;100.00
11830;BME280;5972;42.134;24.718;2024-03-02T07:09:04;99391.69;;;8.71;100.00
11830;BME280;5972;42.134;24.718;2024-03-02T07:11:32;99417.13;;;8.83;100.00
11830;BME280;5972;42.134;24.718;2024-03-02T07:14:00;99414.22;;;8.88;100.00
11830;BME280;5972;42.134;24.718;2024-03-02T07:16:27;99404.13;;;8.97;100.00
11830;BME280;5972;42.134;24.718;2024-03-02T07:18:58;99379.63;;;9.02;100.00
11830;BME280;5972;42.134;24.718;2024-03-02T07:21:27;99394.13;;;9.22;100.00
11830;BME280;5972;42.134;24.718;2024-03-02T07:23:54;99387.59;;;9.23;100.00
11830;BME280;5972;42.134;24.718;2024-03-02T07:26:22;99385.00;;;9.02;100.00
11830;BME280;5972;42.134;24.718;2024-03-02T07:28:49;99411.66;;;9.15;100.00
11830;BME280;5972;42.134;24.718;2024-03-02T07:31:17;99403.91;;;9.26;100.00
11830;BME280;5972;42.134;24.718;2024-03-02T07:33:44;99407.06;;;9.28;100.00
11830;BME280;5972;42.134;24.718;2024-03-02T07:36:12;99411.00;;;9.18;100.00
11830;BME280;5972;42.134;24.718;2024-03-02T07:38:39;99415.03;;;9.12;100.00
11830;BME280;5972;42.134;24.718;2024-03-02T07:41:07;99415.59;;;9.06;100.00
11830;BME280;5972;42.134;24.718;2024-03-02T07:43:35;99395.13;;;9.05;100.00
11830;BME280;5972;42.134;24.718;2024-03-02T07:46:03;99410.09;;;9.14;100.00
11830;BME280;5972;42.134;24.718;2024-03-02T07:48:30;99405.25;;;9.20;100.00
11830;BME280;5972;42.134;24.718;2024-03-02T07:50:57;99408.63;;;9.17;100.00
11830;BME280;5972;42.134;24.718;2024-03-02T07:53:24;99406.94;;;9.37;100.00
11830;BME280;5972;42.134;24.718;2024-03-02T07:55:51;99402.00;;;9.39;100.00
11830;BME280;5972;42.134;24.718;2024-03-02T07:58:18;99381.09;;;9.36;100.00
11830;BME280;5972;42.134;24.718;2024-03-02T08:00:47;99413.22;;;9.65;100.00
11830;BME280;5972;42.134;24.718;2024-03-02T08:03:14;99412.69;;;9.35;100.00
11830;BME280;5972;42.134;24.718;2024-03-02T08:05:41;99424.16;;;9.20;100.00
11830;BME280;5972;42.134;24.718;2024-03-02T08:08:08;99435.50;;;9.26;100.00
11830;BME280;5972;42.134;24.718;2024-03-02T08:10:35;99347.75;;;8.71;100.00
11830;BME280;5972;42.134;24.718;2024-03-02T08:13:02;99351.56;;;8.70;100.00
11830;BME280;5972;42.134;24.718;2024-03-02T08:15:29;99434.41;;;9.39;100.00
11830;BME280;5972;42.134;24.718;2024-03-02T08:17:58;99361.53;;;9.02;100.00
11830;BME280;5972;42.134;24.718;2024-03-02T08:20:47;99424.72;;;9.62;100.00
11830;BME280;5972;42.134;24.718;2024-03-02T08:23:13;99422.00;;;9.62;100.00
11830;BME280;5972;42.134;24.718;2024-03-02T08:25:42;99414.56;;;9.71;100.00
11830;BME280;5972;42.134;24.718;2024-03-02T08:28:09;99416.25;;;9.76;100.00
11830;BME280;5972;42.134;24.718;2024-03-02T08:30:36;99408.91;;;9.88;100.00
11830;BME280;5972;42.134;24.718;2024-03-02T08:33:05;99352.06;;;9.85;100.00
11830;BME280;5972;42.134;24.718;2024-03-02T08:35:32;99387.00;;;10.18;100.00
11830;BME280;5972;42.134;24.718;2024-03-02T08:38:01;99401.94;;;10.15;100.00
11830;BME280;5972;42.134;24.718;2024-03-02T08:40:29;99407.22;;;9.96;100.00
11830;BME280;5972;42.134;24.718;2024-03-02T08:42:56;99400.59;;;9.81;100.00
11830;BME280;5972;42.134;24.718;2024-03-02T08:45:23;99408.03;;;9.84;100.00
11830;BME280;5972;42.134;24.718;2024-03-02T08:47:50;99403.75;;;9.83;100.00
11830;BME280;5972;42.134;24.718;2024-03-02T08:50:18;99351.09;;;9.53;100.00
11830;BME280;5972;42.134;24.718;2024-03-02T08:52:45;99400.88;;;9.92;100.00
11830;BME280;5972;42.134;24.718;2024-03-02T08:55:13;99380.94;;;9.69;100.00
11830;BME280;5972;42.134;24.718;2024-03-02T08:57:40;99412.72;;;9.87;100.00
11830;BME280;5972;42.134;24.718;2024-03-02T09:00:08;99401.81;;;9.84;100.00
11830;BME280;5972;42.134;24.718;2024-03-02T09:02:36;99375.84;;;9.67;100.00
11830;BME280;5972;42.134;24.718;2024-03-02T09:05:04;99401.03;;;9.83;100.00
11830;BME280;5972;42.134;24.718;2024-03-02T09:07:33;99403.22;;;10.06;100.00
11830;BME280;5972;42.134;24.718;2024-03-02T09:10:00;99382.06;;;9.55;100.00
11830;BME280;5972;42.134;24.718;2024-03-02T09:12:27;99406.22;;;9.64;100.00
11830;BME280;5972;42.134;24.718;2024-03-02T09:14:55;99393.88;;;9.63;100.00
11830;BME280;5972;42.134;24.718;2024-03-02T09:17:23;99401.75;;;9.56;100.00
11830;BME280;5972;42.134;24.718;2024-03-02T09:19:50;99401.75;;;9.68;100.00
11830;BME280;5972;42.134;24.718;2024-03-02T09:22:18;99391.06;;;9.59;100.00
11830;BME280;5972;42.134;24.718;2024-03-02T09:24:46;99381.75;;;9.45;100.00
11830;BME280;5972;42.134;24.718;2024-03-02T09:27:13;99424.59;;;9.71;100.00
11830;BME280;5972;42.134;24.718;2024-03-02T09:29:40;99414.66;;;9.87;100.00
11830;BME280;5972;42.134;24.718;2024-03-02T09:32:08;99423.44;;;9.96;100.00
11830;BME280;5972;42.134;24.718;2024-03-02T09:34:35;99424.63;;;10.11;100.00
11830;BME280;5972;42.134;24.718;2024-03-02T09:37:02;99417.03;;;10.28;100.00
11830;BME280;5972;42.134;24.718;2024-03-02T09:39:30;99400.31;;;10.38;100.00
11830;BME280;5972;42.134;24.718;2024-03-02T09:41:58;99411.19;;;10.54;100.00
11830;BME280;5972;42.134;24.718;2024-03-02T09:44:26;99393.25;;;9.94;100.00
11830;BME280;5972;42.134;24.718;2024-03-02T09:46:53;99410.78;;;10.00;100.00
11830;BME280;5972;42.134;24.718;2024-03-02T09:49:20;99415.97;;;10.17;100.00
11830;BME280;5972;42.134;24.718;2024-03-02T09:51:48;99397.81;;;10.06;100.00
11830;BME280;5972;42.134;24.718;2024-03-02T09:54:15;99392.22;;;9.98;100.00
11830;BME280;5972;42.134;24.718;2024-03-02T09:56:43;99416.16;;;10.24;100.00
11830;BME280;5972;42.134;24.718;2024-03-02T09:59:12;99408.47;;;10.14;100.00
11830;BME280;5972;42.134;24.718;2024-03-02T10:01:55;99397.03;;;10.17;100.00
11830;BME280;5972;42.134;24.718;2024-03-02T10:04:25;99393.28;;;10.10;100.00
11830;BME280;5972;42.134;24.718;2024-03-02T10:07:09;99408.97;;;10.04;100.00
11830;BME280;5972;42.134;24.718;2024-03-02T10:09:36;99412.38;;;10.41;100.00
11830;BME280;5972;42.134;24.718;2024-03-02T10:12:04;99401.72;;;10.48;100.00
11830;BME280;5972;42.134;24.718;2024-03-02T10:14:33;99404.56;;;10.67;100.00
11830;BME280;5972;42.134;24.718;2024-03-02T10:17:04;99404.78;;;10.74;100.00
11830;BME280;5972;42.134;24.718;2024-03-02T10:19:31;99398.06;;;10.84;100.00
11830;BME280;5972;42.134;24.718;2024-03-02T10:22:01;99377.34;;;10.76;100.00
11830;BME280;5972;42.134;24.718;2024-03-02T10:24:35;99394.28;;;10.89;100.00
11830;BME280;5972;42.134;24.718;2024-03-02T10:27:07;99396.66;;;11.06;100.00
11830;BME280;5972;42.134;24.718;2024-03-02T10:29:40;99384.53;;;11.00;100.00
11830;BME280;5972;42.134;24.718;2024-03-02T10:32:11;99348.38;;;10.92;100.00
11830;BME280;5972;42.134;24.718;2024-03-02T10:34:40;99370.78;;;11.40;100.00
11830;BME280;5972;42.134;24.718;2024-03-02T10:37:08;99351.50;;;11.10;100.00
11830;BME280;5972;42.134;24.718;2024-03-02T10:39:35;99361.16;;;11.42;100.00
11830;BME280;5972;42.134;24.718;2024-03-02T10:42:03;99373.19;;;11.95;100.00
11830;BME280;5972;42.134;24.718;2024-03-02T10:44:32;99355.69;;;11.74;100.00
11830;BME280;5972;42.134;24.718;2024-03-02T10:47:03;99352.63;;;11.94;100.00
11830;BME280;5972;42.134;24.718;2024-03-02T10:49:31;99356.34;;;12.05;100.00
11830;BME280;5972;42.134;24.718;2024-03-02T10:51:59;99341.78;;;12.14;100.00
11830;BME280;5972;42.134;24.718;2024-03-02T10:54:26;99332.66;;;12.02;100.00
11830;BME280;5972;42.134;24.718;2024-03-02T10:56:58;99325.09;;;11.92;100.00
11830;BME280;5972;42.134;24.718;2024-03-02T10:59:33;99345.78;;;12.00;100.00
11830;BME280;5972;42.134;24.718;2024-03-02T11:02:03;99339.44;;;12.12;100.00
11830;BME280;5972;42.134;24.718;2024-03-02T11:04:32;99343.84;;;12.20;100.00
11830;BME280;5972;42.134;24.718;2024-03-02T11:07:04;99344.75;;;12.47;100.00
11830;BME280;5972;42.134;24.718;2024-03-02T11:09:34;99336.91;;;12.42;100.00
11830;BME280;5972;42.134;24.718;2024-03-02T11:12:03;99345.41;;;12.21;100.00
11830;BME280;5972;42.134;24.718;2024-03-02T11:14:37;99331.44;;;12.19;100.00
11830;BME280;5972;42.134;24.718;2024-03-02T11:17:10;99322.88;;;12.17;100.00
11830;BME280;5972;42.134;24.718;2024-03-02T11:19:38;99330.50;;;12.31;100.00
11830;BME280;5972;42.134;24.718;2024-03-02T11:22:06;99330.56;;;12.34;100.00
11830;BME280;5972;42.134;24.718;2024-03-02T11:24:33;99294.41;;;12.07;100.00
11830;BME280;5972;42.134;24.718;2024-03-02T11:27:01;99302.28;;;12.35;100.00
11830;BME280;5972;42.134;24.718;2024-03-02T11:29:46;99290.53;;;12.50;100.00
11830;BME280;5972;42.134;24.718;2024-03-02T11:32:21;99318.28;;;12.86;100.00
11830;BME280;5972;42.134;24.718;2024-03-02T11:34:50;99326.81;;;12.88;100.00
11830;BME280;5972;42.134;24.718;2024-03-02T11:37:18;99324.06;;;12.84;100.00
11830;BME280;5972;42.134;24.718;2024-03-02T11:39:46;99314.22;;;12.76;100.00
11830;BME280;5972;42.134;24.718;2024-03-02T11:42:14;99314.94;;;12.96;100.00
11830;BME280;5972;42.134;24.718;2024-03-02T11:44:43;99312.38;;;13.29;100.00
11830;BME280;5972;42.134;24.718;2024-03-02T11:47:12;99305.69;;;13.23;100.00
11830;BME280;5972;42.134;24.718;2024-03-02T11:49:45;99308.97;;;13.36;100.00
11830;BME280;5972;42.134;24.718;2024-03-02T11:52:13;99304.25;;;13.33;100.00
11830;BME280;5972;42.134;24.718;2024-03-02T11:54:42;99301.22;;;13.38;100.00
11830;BME280;5972;42.134;24.718;2024-03-02T11:57:15;99271.00;;;13.13;100.00
11830;BME280;5972;42.134;24.718;2024-03-02T11:59:42;99273.50;;;13.25;100.00
11830;BME280;5972;42.134;24.718;2024-03-02T12:02:15;99293.09;;;13.68;100.00
11830;BME280;5972;42.134;24.718;2024-03-02T12:04:44;99286.16;;;13.74;100.00
11830;BME280;5972;42.134;24.718;2024-03-02T12:07:19;99288.69;;;13.90;100.00
11830;BME280;5972;42.134;24.718;2024-03-02T12:09:47;99286.50;;;14.02;100.00
11830;BME280;5972;42.134;24.718;2024-03-02T12:12:17;99285.41;;;13.77;100.00
11830;BME280;5972;42.134;24.718;2024-03-02T12:14:50;99290.72;;;13.66;100.00
11830;BME280;5972;42.134;24.718;2024-03-02T12:17:18;99286.13;;;13.70;100.00
11830;BME280;5972;42.134;24.718;2024-03-02T12:19:47;99288.44;;;13.68;100.00
11830;BME280;5972;42.134;24.718;2024-03-02T12:22:15;99269.28;;;13.61;100.00
11830;BME280;5972;42.134;24.718;2024-03-02T12:24:42;99280.84;;;13.85;100.00
11830;BME280;5972;42.134;24.718;2024-03-02T12:27:11;99275.19;;;14.00;100.00
11830;BME280;5972;42.134;24.718;2024-03-02T12:29:39;99275.66;;;14.06;100.00
11830;BME280;5972;42.134;24.718;2024-03-02T12:32:06;99281.16;;;14.13;100.00
11830;BME280;5972;42.134;24.718;2024-03-02T12:34:33;99280.38;;;14.12;100.00
11830;BME280;5972;42.134;24.718;2024-03-02T12:37:02;99275.50;;;14.32;100.00
11830;BME280;5972;42.134;24.718;2024-03-02T12:39:29;99252.16;;;13.91;100.00
11830;BME280;5972;42.134;24.718;2024-03-02T12:41:58;99257.59;;;13.87;100.00
11830;BME280;5972;42.134;24.718;2024-03-02T12:44:25;99281.00;;;13.99;100.00
11830;BME280;5972;42.134;24.718;2024-03-02T12:46:52;99281.84;;;14.03;100.00
11830;BME280;5972;42.134;24.718;2024-03-02T12:49:22;99280.84;;;13.85;100.00
11830;BME280;5972;42.134;24.718;2024-03-02T12:51:49;99284.56;;;13.69;100.00
11830;BME280;5972;42.134;24.718;2024-03-02T12:54:22;99287.69;;;13.42;100.00
11830;BME280;5972;42.134;24.718;2024-03-02T12:56:50;99294.06;;;13.53;100.00
11830;BME280;5972;42.134;24.718;2024-03-02T12:59:20;99268.50;;;13.05;100.00
11830;BME280;5972;42.134;24.718;2024-03-02T13:01:51;99284.22;;;13.15;100.00
11830;BME280;5972;42.134;24.718;2024-03-02T13:04:23;99279.31;;;13.01;100.00
11830;BME280;5972;42.134;24.718;2024-03-02T13:06:51;99296.16;;;12.87;100.00